sensor_id;sensor_type;location;lat;lon;timestamp;pressure;altitude;pressure_sealevel;temperature;humidity
10466;BME280;5280;42.600;23.556;2023-05-27T00:00:32;93489.84;;;14.70;100.00
10466;BME280;5280;42.600;23.556;2023-05-27T00:02:59;93477.94;;;14.74;100.00
10466;BME280;5280;42.600;23.556;2023-05-27T00:05:26;93474.44;;;14.73;100.00
10466;BME280;5280;42.600;23.556;2023-05-27T00:07:55;93471.91;;;14.81;100.00
10466;BME280;5280;42.600;23.556;2023-05-27T00:10:22;93467.72;;;14.79;100.00
10466;BME280;5280;42.600;23.556;2023-05-27T00:12:48;93462.22;;;14.80;100.00
10466;BME280;5280;42.600;23.556;2023-05-27T00:15:15;93469.38;;;14.80;100.00
10466;BME280;5280;42.600;23.556;2023-05-27T00:17:43;93433.59;;;14.55;100.00
10466;BME280;5280;42.600;23.556;2023-05-27T00:20:11;93456.66;;;14.74;100.00
10466;BME280;5280;42.600;23.556;2023-05-27T00:22:38;93463.78;;;14.83;100.00
10466;BME280;5280;42.600;23.556;2023-05-27T00:25:08;93465.16;;;14.87;100.00
10466;BME280;5280;42.600;23.556;2023-05-27T00:27:35;93458.03;;;14.87;100.00
10466;BME280;5280;42.600;23.556;2023-05-27T00:30:02;93433.97;;;14.79;100.00
10466;BME280;5280;42.600;23.556;2023-05-27T00:32:30;93436.72;;;14.87;100.00
10466;BME280;5280;42.600;23.556;2023-05-27T00:34:57;93443.72;;;14.88;100.00
10466;BME280;5280;42.600;23.556;2023-05-27T00:37:24;93393.97;;;14.61;100.00
10466;BME280;5280;42.600;23.556;2023-05-27T00:39:51;93444.28;;;14.92;100.00
10466;BME280;5280;42.600;23.556;2023-05-27T00:42:20;93445.97;;;14.93;100.00
10466;BME280;5280;42.600;23.556;2023-05-27T00:44:46;93424.72;;;14.83;100.00
10466;BME280;5280;42.600;23.556;2023-05-27T00:47:17;93437.66;;;14.96;100.00
10466;BME280;5280;42.600;23.556;2023-05-27T00:49:45;93433.06;;;14.98;100.00
10466;BME280;5280;42.600;23.556;2023-05-27T00:52:12;93426.34;;;14.94;100.00
10466;BME280;5280;42.600;23.556;2023-05-27T00:54:47;93311.78;;;14.21;100.00
10466;BME280;5280;42.600;23.556;2023-05-27T00:57:14;93419.34;;;14.93;100.00
10466;BME280;5280;42.600;23.556;2023-05-27T00:59:43;93417.78;;;14.90;100.00
10466;BME280;5280;42.600;23.556;2023-05-27T01:02:10;93418.50;;;14.92;100.00
10466;BME280;5280;42.600;23.556;2023-05-27T01:04:38;93376.47;;;14.69;100.00
10466;BME280;5280;42.600;23.556;2023-05-27T01:07:10;93408.97;;;14.90;100.00
10466;BME280;5280;42.600;23.556;2023-05-27T01:09:45;93404.66;;;14.89;100.00
10466;BME280;5280;42.600;23.556;2023-05-27T01:12:17;93412.66;;;14.89;100.00
10466;BME280;5280;42.600;23.556;2023-05-27T01:14:49;93415.44;;;14.87;100.00
10466;BME280;5280;42.600;23.556;2023-05-27T01:17:18;93409.97;;;14.89;100.00
10466;BME280;5280;42.600;23.556;2023-05-27T01:19:45;93404.94;;;14.86;100.00
10466;BME280;5280;42.600;23.556;2023-05-27T01:22:13;93409.28;;;14.87;100.00
10466;BME280;5280;42.600;23.556;2023-05-27T01:24:41;93414.28;;;14.90;100.00
10466;BME280;5280;42.600;23.556;2023-05-27T01:27:08;93395.03;;;14.78;100.00
10466;BME280;5280;42.600;23.556;2023-05-27T01:29:38;93394.72;;;14.81;100.00
10466;BME280;5280;42.600;23.556;2023-05-27T01:32:09;93398.53;;;14.79;100.00
10466;BME280;5280;42.600;23.556;2023-05-27T01:34:43;93379.66;;;14.72;100.00
10466;BME280;5280;42.600;23.556;2023-05-27T01:37:13;93389.53;;;14.80;100.00
10466;BME280;5280;42.600;23.556;2023-05-27T01:39:45;93373.94;;;14.67;100.00
10466;BME280;5280;42.600;23.556;2023-05-27T01:42:14;93390.84;;;14.76;100.00
10466;BME280;5280;42.600;23.556;2023-05-27T01:44:41;93382.72;;;14.77;100.00
10466;BME280;5280;42.600;23.556;2023-05-27T01:47:08;93369.00;;;14.72;100.00
10466;BME280;5280;42.600;23.556;2023-05-27T01:49:37;93336.38;;;14.43;100.00
10466;BME280;5280;42.600;23.556;2023-05-27T01:52:04;93389.16;;;14.75;100.00
10466;BME280;5280;42.600;23.556;2023-05-27T01:54:31;93384.44;;;14.69;100.00
10466;BME280;5280;42.600;23.556;2023-05-27T01:56:59;93377.44;;;14.68;100.00
10466;BME280;5280;42.600;23.556;2023-05-27T01:59:26;93376.63;;;14.57;100.00
10466;BME280;5280;42.600;23.556;2023-05-27T02:01:53;93394.91;;;14.70;100.00
10466;BME280;5280;42.600;23.556;2023-05-27T02:04:19;93389.59;;;14.70;100.00
10466;BME280;5280;42.600;23.556;2023-05-27T02:06:46;93375.47;;;14.60;100.00
10466;BME280;5280;42.600;23.556;2023-05-27T02:09:13;93393.41;;;14.68;100.00
10466;BME280;5280;42.600;23.556;2023-05-27T02:11:41;93377.47;;;14.58;100.00
10466;BME280;5280;42.600;23.556;2023-05-27T02:14:09;93390.03;;;14.65;100.00
10466;BME280;5280;42.600;23.556;2023-05-27T02:16:36;93391.00;;;14.64;100.00
10466;BME280;5280;42.600;23.556;2023-05-27T02:19:04;93393.97;;;14.61;100.00
10466;BME280;5280;42.600;23.556;2023-05-27T02:21:35;93394.09;;;14.60;100.00
10466;BME280;5280;42.600;23.556;2023-05-27T02:24:03;93368.16;;;14.44;100.00
10466;BME280;5280;42.600;23.556;2023-05-27T02:26:30;93391.22;;;14.53;100.00
10466;BME280;5280;42.600;23.556;2023-05-27T02:28:56;93395.94;;;14.50;100.00
10466;BME280;5280;42.600;23.556;2023-05-27T02:31:25;93398.44;;;14.61;100.00
10466;BME280;5280;42.600;23.556;2023-05-27T02:33:51;93385.63;;;14.47;100.00
10466;BME280;5280;42.600;23.556;2023-05-27T02:36:18;93383.22;;;14.53;100.00
10466;BME280;5280;42.600;23.556;2023-05-27T02:38:46;93378.34;;;14.49;100.00
10466;BME280;5280;42.600;23.556;2023-05-27T02:41:15;93362.25;;;14.31;100.00
10466;BME280;5280;42.600;23.556;2023-05-27T02:43:41;93381.84;;;14.40;100.00
10466;BME280;5280;42.600;23.556;2023-05-27T02:46:08;93384.22;;;14.33;100.00
10466;BME280;5280;42.600;23.556;2023-05-27T02:48:36;93356.28;;;14.19;100.00
10466;BME280;5280;42.600;23.556;2023-05-27T02:51:03;93380.31;;;14.28;100.00
10466;BME280;5280;42.600;23.556;2023-05-27T02:53:30;93379.22;;;14.20;100.00
10466;BME280;5280;42.600;23.556;2023-05-27T02:55:57;93348.47;;;14.08;100.00
10466;BME280;5280;42.600;23.556;2023-05-27T02:58:24;93380.47;;;14.26;100.00
10466;BME280;5280;42.600;23.556;2023-05-27T03:00:51;93347.50;;;14.09;100.00
10466;BME280;5280;42.600;23.556;2023-05-27T03:03:18;93374.47;;;14.24;100.00
10466;BME280;5280;42.600;23.556;2023-05-27T03:05:50;93380.63;;;14.25;100.00
10466;BME280;5280;42.600;23.556;2023-05-27T03:08:17;93380.63;;;14.25;100.00
10466;BME280;5280;42.600;23.556;2023-05-27T03:10:44;93369.72;;;14.18;100.00
10466;BME280;5280;42.600;23.556;2023-05-27T03:13:10;93381.44;;;14.25;100.00
10466;BME280;5280;42.600;23.556;2023-05-27T03:15:37;93390.81;;;14.29;100.00
10466;BME280;5280;42.600;23.556;2023-05-27T03:18:04;93384.81;;;14.27;100.00
10466;BME280;5280;42.600;23.556;2023-05-27T03:20:31;93384.50;;;14.30;100.00
10466;BME280;5280;42.600;23.556;2023-05-27T03:22:59;93395.00;;;14.32;100.00
10466;BME280;5280;42.600;23.556;2023-05-27T03:25:26;93388.16;;;14.29;100.00
10466;BME280;5280;42.600;23.556;2023-05-27T03:27:54;93385.50;;;14.29;100.00
10466;BME280;5280;42.600;23.556;2023-05-27T03:30:21;93354.22;;;14.04;100.00
10466;BME280;5280;42.600;23.556;2023-05-27T03:32:48;93375.13;;;14.26;100.00
10466;BME280;5280;42.600;23.556;2023-05-27T03:35:15;93379.19;;;14.30;100.00
10466;BME280;5280;42.600;23.556;2023-05-27T03:37:42;93375.13;;;14.26;100.00
10466;BME280;5280;42.600;23.556;2023-05-27T03:40:11;93392.88;;;14.35;100.00
10466;BME280;5280;42.600;23.556;2023-05-27T03:42:38;93398.94;;;14.37;100.00
10466;BME280;5280;42.600;23.556;2023-05-27T03:45:06;93400.47;;;14.40;100.00
10466;BME280;5280;42.600;23.556;2023-05-27T03:47:33;93401.31;;;14.40;100.00
10466;BME280;5280;42.600;23.556;2023-05-27T03:50:01;93404.66;;;14.42;100.00
10466;BME280;5280;42.600;23.556;2023-05-27T03:52:28;93333.09;;;14.02;100.00
10466;BME280;5280;42.600;23.556;2023-05-27T03:54:55;93390.66;;;14.40;100.00
10466;BME280;5280;42.600;23.556;2023-05-27T03:57:23;93405.06;;;14.47;100.00
10466;BME280;5280;42.600;23.556;2023-05-27T03:59:50;93412.75;;;14.50;100.00
10466;BME280;5280;42.600;23.556;2023-05-27T04:02:17;93345.94;;;14.07;100.00
10466;BME280;5280;42.600;23.556;2023-05-27T04:04:43;93410.50;;;14.55;100.00
10466;BME280;5280;42.600;23.556;2023-05-27T04:07:12;93414.44;;;14.51;100.00
10466;BME280;5280;42.600;23.556;2023-05-27T04:09:39;93414.84;;;14.56;100.00
10466;BME280;5280;42.600;23.556;2023-05-27T04:12:09;93395.41;;;14.46;100.00
10466;BME280;5280;42.600;23.556;2023-05-27T04:14:37;93406.44;;;14.61;100.00
10466;BME280;5280;42.600;23.556;2023-05-27T04:17:04;93404.31;;;14.64;100.00
10466;BME280;5280;42.600;23.556;2023-05-27T04:19:31;93357.09;;;14.39;100.00
10466;BME280;5280;42.600;23.556;2023-05-27T04:21:58;93398.84;;;14.66;100.00
10466;BME280;5280;42.600;23.556;2023-05-27T04:24:25;93399.81;;;14.65;100.00
10466;BME280;5280;42.600;23.556;2023-05-27T04:26:52;93400.22;;;14.70;100.00
10466;BME280;5280;42.600;23.556;2023-05-27T04:29:19;93396.59;;;14.71;100.00
10466;BME280;5280;42.600;23.556;2023-05-27T04:31:49;93359.47;;;14.42;100.00
10466;BME280;5280;42.600;23.556;2023-05-27T04:34:17;93395.91;;;14.69;100.00
10466;BME280;5280;42.600;23.556;2023-05-27T04:36:45;93409.19;;;14.79;100.00
10466;BME280;5280;42.600;23.556;2023-05-27T04:39:15;93412.06;;;14.85;100.00
10466;BME280;5280;42.600;23.556;2023-05-27T04:41:41;93407.47;;;14.87;100.00
10466;BME280;5280;42.600;23.556;2023-05-27T04:44:11;93406.63;;;14.87;100.00
10466;BME280;5280;42.600;23.556;2023-05-27T04:46:38;93400.41;;;14.96;100.00
10466;BME280;5280;42.600;23.556;2023-05-27T04:49:07;93315.63;;;14.46;100.00
10466;BME280;5280;42.600;23.556;2023-05-27T04:51:34;93402.44;;;15.12;100.00
10466;BME280;5280;42.600;23.556;2023-05-27T04:54:02;93406.03;;;15.20;100.00
10466;BME280;5280;42.600;23.556;2023-05-27T04:56:30;93394.84;;;15.17;100.00
10466;BME280;5280;42.600;23.556;2023-05-27T04:58:57;93406.19;;;15.19;100.00
10466;BME280;5280;42.600;23.556;2023-05-27T05:01:25;93413.81;;;15.31;100.00
10466;BME280;5280;42.600;23.556;2023-05-27T05:03:52;93404.38;;;15.19;100.00
10466;BME280;5280;42.600;23.556;2023-05-27T05:06:38;93405.25;;;15.37;100.00
10466;BME280;5280;42.600;23.556;2023-05-27T05:09:05;93413.91;;;15.39;100.00
10466;BME280;5280;42.600;23.556;2023-05-27T05:11:33;93415.59;;;15.40;100.00
10466;BME280;5280;42.600;23.556;2023-05-27T05:13:59;93415.84;;;15.47;100.00
10466;BME280;5280;42.600;23.556;2023-05-27T05:16:26;93410.09;;;15.52;100.00
10466;BME280;5280;42.600;23.556;2023-05-27T05:18:53;93399.59;;;15.40;100.00
10466;BME280;5280;42.600;23.556;2023-05-27T05:21:19;93405.19;;;15.47;100.00
10466;BME280;5280;42.600;23.556;2023-05-27T05:23:50;93412.53;;;15.63;100.00
10466;BME280;5280;42.600;23.556;2023-05-27T05:26:17;93403.63;;;15.54;100.00
10466;BME280;5280;42.600;23.556;2023-05-27T05:28:44;93420.16;;;15.58;100.00
10466;BME280;5280;42.600;23.556;2023-05-27T05:31:10;93436.22;;;15.66;100.00
10466;BME280;5280;42.600;23.556;2023-05-27T05:33:37;93419.09;;;15.68;100.00
10466;BME280;5280;42.600;23.556;2023-05-27T05:36:04;93425.09;;;15.70;100.00
10466;BME280;5280;42.600;23.556;2023-05-27T05:38:31;93429.97;;;15.57;100.00
10466;BME280;5280;42.600;23.556;2023-05-27T05:40:59;93372.91;;;15.32;100.00
10466;BME280;5280;42.600;23.556;2023-05-27T05:43:26;93433.03;;;15.80;100.00
10466;BME280;5280;42.600;23.556;2023-05-27T05:45:53;93415.81;;;15.74;100.00
10466;BME280;5280;42.600;23.556;2023-05-27T05:48:20;93444.44;;;15.90;100.00
10466;BME280;5280;42.600;23.556;2023-05-27T05:50:47;93427.03;;;15.78;100.00
10466;BME280;5280;42.600;23.556;2023-05-27T05:53:13;93444.31;;;15.91;100.00
10466;BME280;5280;42.600;23.556;2023-05-27T05:55:40;93441.78;;;15.90;100.00
10466;BME280;5280;42.600;23.556;2023-05-27T05:58:08;93456.47;;;15.94;100.00
10466;BME280;5280;42.600;23.556;2023-05-27T06:00:39;93352.44;;;15.33;100.00
10466;BME280;5280;42.600;23.556;2023-05-27T06:03:10;93443.47;;;15.91;100.00
10466;BME280;5280;42.600;23.556;2023-05-27T06:05:37;93450.63;;;15.90;100.00
10466;BME280;5280;42.600;23.556;2023-05-27T06:08:04;93458.53;;;16.00;100.00
10466;BME280;5280;42.600;23.556;2023-05-27T06:10:31;93459.09;;;16.04;100.00
10466;BME280;5280;42.600;23.556;2023-05-27T06:12:58;93419.41;;;15.83;100.00
10466;BME280;5280;42.600;23.556;2023-05-27T06:15:27;93443.16;;;15.94;100.00
10466;BME280;5280;42.600;23.556;2023-05-27T06:17:57;93383.25;;;15.63;100.00
10466;BME280;5280;42.600;23.556;2023-05-27T06:20:24;93461.78;;;16.04;100.00
10466;BME280;5280;42.600;23.556;2023-05-27T06:22:51;93461.59;;;16.05;100.00
10466;BME280;5280;42.600;23.556;2023-05-27T06:25:18;93464.97;;;16.07;100.00
10466;BME280;5280;42.600;23.556;2023-05-27T06:27:44;93472.25;;;16.05;100.00
10466;BME280;5280;42.600;23.556;2023-05-27T06:30:12;93463.28;;;16.06;100.00
10466;BME280;5280;42.600;23.556;2023-05-27T06:32:40;93433.97;;;15.88;100.00
10466;BME280;5280;42.600;23.556;2023-05-27T06:35:07;93374.47;;;15.53;100.00
10466;BME280;5280;42.600;23.556;2023-05-27T06:37:34;93470.81;;;16.11;100.00
10466;BME280;5280;42.600;23.556;2023-05-27T06:40:01;93473.63;;;16.09;100.00
10466;BME280;5280;42.600;23.556;2023-05-27T06:42:28;93477.84;;;16.12;100.00
10466;BME280;5280;42.600;23.556;2023-05-27T06:44:55;93450.16;;;15.95;100.00
10466;BME280;5280;42.600;23.556;2023-05-27T06:47:22;93465.47;;;16.11;100.00
10466;BME280;5280;42.600;23.556;2023-05-27T06:49:50;93475.03;;;16.13;100.00
10466;BME280;5280;42.600;23.556;2023-05-27T06:52:17;93476.44;;;16.25;100.00
10466;BME280;5280;42.600;23.556;2023-05-27T06:54:44;93463.44;;;16.22;100.00
10466;BME280;5280;42.600;23.556;2023-05-27T06:57:11;93480.78;;;16.26;100.00
10466;BME280;5280;42.600;23.556;2023-05-27T06:59:38;93477.44;;;16.24;100.00
10466;BME280;5280;42.600;23.556;2023-05-27T07:02:05;93427.16;;;15.94;100.00
10466;BME280;5280;42.600;23.556;2023-05-27T07:04:32;93487.63;;;16.29;100.00
10466;BME280;5280;42.600;23.556;2023-05-27T07:07:04;93417.88;;;15.98;100.00
10466;BME280;5280;42.600;23.556;2023-05-27T07:09:33;93446.34;;;16.15;100.00
10466;BME280;5280;42.600;23.556;2023-05-27T07:12:02;93478.19;;;16.34;100.00
10466;BME280;5280;42.600;23.556;2023-05-27T07:14:29;93467.97;;;16.30;100.00
10466;BME280;5280;42.600;23.556;2023-05-27T07:16:56;93384.06;;;15.81;100.00
10466;BME280;5280;42.600;23.556;2023-05-27T07:19:22;93488.94;;;16.43;100.00
10466;BME280;5280;42.600;23.556;2023-05-27T07:21:49;93470.94;;;16.45;100.00
10466;BME280;5280;42.600;23.556;2023-05-27T07:24:18;93483.63;;;16.43;100.00
10466;BME280;5280;42.600;23.556;2023-05-27T07:26:44;93477.66;;;16.49;100.00
10466;BME280;5280;42.600;23.556;2023-05-27T07:29:11;93486.47;;;16.49;100.00
10466;BME280;5280;42.600;23.556;2023-05-27T07:31:38;93420.00;;;16.12;100.00
10466;BME280;5280;42.600;23.556;2023-05-27T07:34:05;93458.06;;;16.40;100.00
10466;BME280;5280;42.600;23.556;2023-05-27T07:36:33;93433.78;;;16.25;100.00
10466;BME280;5280;42.600;23.556;2023-05-27T07:39:00;93464.34;;;16.49;100.00
10466;BME280;5280;42.600;23.556;2023-05-27T07:41:29;93492.22;;;16.72;100.00
10466;BME280;5280;42.600;23.556;2023-05-27T07:43:56;93477.28;;;16.61;100.00
10466;BME280;5280;42.600;23.556;2023-05-27T07:46:23;93443.28;;;16.46;100.00
10466;BME280;5280;42.600;23.556;2023-05-27T07:48:50;93497.09;;;16.76;100.00
10466;BME280;5280;42.600;23.556;2023-05-27T07:51:17;93501.50;;;16.86;100.00
10466;BME280;5280;42.600;23.556;2023-05-27T07:53:45;93502.66;;;16.83;100.00
10466;BME280;5280;42.600;23.556;2023-05-27T07:56:13;93494.31;;;16.86;100.00
10466;BME280;5280;42.600;23.556;2023-05-27T07:58:42;93484.25;;;16.80;100.00
10466;BME280;5280;42.600;23.556;2023-05-27T08:01:09;93475.78;;;16.85;100.00
10466;BME280;5280;42.600;23.556;2023-05-27T08:03:36;93502.09;;;16.97;100.00
10466;BME280;5280;42.600;23.556;2023-05-27T08:06:03;93500.06;;;16.99;100.00
10466;BME280;5280;42.600;23.556;2023-05-27T08:08:30;93508.38;;;16.88;100.00
10466;BME280;5280;42.600;23.556;2023-05-27T08:10:57;93435.31;;;16.54;100.00
10466;BME280;5280;42.600;23.556;2023-05-27T08:13:27;93459.13;;;16.65;100.00
10466;BME280;5280;42.600;23.556;2023-05-27T08:15:56;93458.00;;;16.67;100.00
10466;BME280;5280;42.600;23.556;2023-05-27T08:18:23;93510.47;;;17.02;100.00
10466;BME280;5280;42.600;23.556;2023-05-27T08:20:50;93488.38;;;16.92;100.00
10466;BME280;5280;42.600;23.556;2023-05-27T08:23:17;93507.16;;;17.08;100.00
10466;BME280;5280;42.600;23.556;2023-05-27T08:25:44;93513.16;;;17.10;100.00
10466;BME280;5280;42.600;23.556;2023-05-27T08:28:11;93507.16;;;17.08;100.00
10466;BME280;5280;42.600;23.556;2023-05-27T08:30:38;93485.72;;;17.00;100.00
10466;BME280;5280;42.600;23.556;2023-05-27T08:33:06;93508.03;;;17.17;100.00
10466;BME280;5280;42.600;23.556;2023-05-27T08:35:33;93508.03;;;17.17;100.00
10466;BME280;5280;42.600;23.556;2023-05-27T08:37:59;93513.56;;;17.23;100.00
10466;BME280;5280;42.600;23.556;2023-05-27T08:40:31;93502.75;;;17.25;100.00
10466;BME280;5280;42.600;23.556;2023-05-27T08:42:58;93481.69;;;17.22;100.00
10466;BME280;5280;42.600;23.556;2023-05-27T08:45:26;93491.06;;;17.26;100.00
10466;BME280;5280;42.600;23.556;2023-05-27T08:47:53;93505.78;;;17.30;100.00
10466;BME280;5280;42.600;23.556;2023-05-27T08:50:22;93485.50;;;17.19;100.00
10466;BME280;5280;42.600;23.556;2023-05-27T08:52:55;93479.31;;;17.19;100.00
10466;BME280;5280;42.600;23.556;2023-05-27T08:55:26;93456.59;;;17.15;100.00
10466;BME280;5280;42.600;23.556;2023-05-27T08:57:57;93473.09;;;17.36;100.00
10466;BME280;5280;42.600;23.556;2023-05-27T09:00:25;93463.72;;;17.32;100.00
10466;BME280;5280;42.600;23.556;2023-05-27T09:02:53;93444.53;;;17.37;100.00
10466;BME280;5280;42.600;23.556;2023-05-27T09:05:23;93491.50;;;17.73;100.00
10466;BME280;5280;42.600;23.556;2023-05-27T09:07:50;93451.00;;;17.60;100.00
10466;BME280;5280;42.600;23.556;2023-05-27T09:10:17;93483.50;;;17.89;100.00
10466;BME280;5280;42.600;23.556;2023-05-27T09:12:45;93419.03;;;17.50;100.00
10466;BME280;5280;42.600;23.556;2023-05-27T09:15:13;93495.25;;;17.96;100.00
10466;BME280;5280;42.600;23.556;2023-05-27T09:17:41;93498.09;;;18.03;100.00
10466;BME280;5280;42.600;23.556;2023-05-27T09:20:09;93492.91;;;18.01;100.00
10466;BME280;5280;42.600;23.556;2023-05-27T09:22:38;93500.28;;;18.08;100.00
10466;BME280;5280;42.600;23.556;2023-05-27T09:25:06;93503.47;;;18.03;100.00
10466;BME280;5280;42.600;23.556;2023-05-27T09:27:33;93496.94;;;18.14;100.00
10466;BME280;5280;42.600;23.556;2023-05-27T09:30:07;93458.59;;;17.89;100.00
10466;BME280;5280;42.600;23.556;2023-05-27T09:32:34;93488.94;;;18.22;100.00
10466;BME280;5280;42.600;23.556;2023-05-27T09:35:05;93450.13;;;18.01;100.00
10466;BME280;5280;42.600;23.556;2023-05-27T09:37:34;93488.78;;;18.31;100.00
10466;BME280;5280;42.600;23.556;2023-05-27T09:40:07;93432.25;;;18.02;100.00
10466;BME280;5280;42.600;23.556;2023-05-27T09:42:39;93434.56;;;18.05;100.00
10466;BME280;5280;42.600;23.556;2023-05-27T09:45:11;93482.94;;;18.36;100.00
10466;BME280;5280;42.600;23.556;2023-05-27T09:47:40;93486.13;;;18.39;100.00
10466;BME280;5280;42.600;23.556;2023-05-27T09:50:09;93485.63;;;18.44;100.00
10466;BME280;5280;42.600;23.556;2023-05-27T09:52:40;93399.78;;;17.89;100.00
10466;BME280;5280;42.600;23.556;2023-05-27T09:55:10;93491.38;;;18.57;100.00
10466;BME280;5280;42.600;23.556;2023-05-27T09:57:38;93484.81;;;18.52;99.02
10466;BME280;5280;42.600;23.556;2023-05-27T10:00:07;93488.34;;;18.60;95.80
10466;BME280;5280;42.600;23.556;2023-05-27T10:02:38;93484.50;;;18.55;100.00
10466;BME280;5280;42.600;23.556;2023-05-27T10:05:07;93486.34;;;18.62;98.12
10466;BME280;5280;42.600;23.556;2023-05-27T10:07:36;93480.00;;;18.71;97.46
10466;BME280;5280;42.600;23.556;2023-05-27T10:10:06;93492.69;;;18.85;99.93
10466;BME280;5280;42.600;23.556;2023-05-27T10:12:36;93484.00;;;18.91;98.36
10466;BME280;5280;42.600;23.556;2023-05-27T10:15:03;93451.84;;;18.51;93.90
10466;BME280;5280;42.600;23.556;2023-05-27T10:17:40;93482.13;;;18.84;96.23
10466;BME280;5280;42.600;23.556;2023-05-27T10:20:08;93434.63;;;18.70;97.72
10466;BME280;5280;42.600;23.556;2023-05-27T10:22:38;93480.78;;;19.04;96.91
10466;BME280;5280;42.600;23.556;2023-05-27T10:25:11;93425.09;;;18.67;96.00
10466;BME280;5280;42.600;23.556;2023-05-27T10:27:43;93475.25;;;19.06;96.70
10466;BME280;5280;42.600;23.556;2023-05-27T10:30:11;93455.88;;;18.87;93.38
10466;BME280;5280;42.600;23.556;2023-05-27T10:32:43;93485.78;;;19.15;95.56
10466;BME280;5280;42.600;23.556;2023-05-27T10:35:10;93486.31;;;19.11;96.46
10466;BME280;5280;42.600;23.556;2023-05-27T10:37:37;93478.59;;;19.16;95.32
10466;BME280;5280;42.600;23.556;2023-05-27T10:40:05;93470.41;;;19.17;94.98
10466;BME280;5280;42.600;23.556;2023-05-27T10:42:32;93465.19;;;19.16;96.26
10466;BME280;5280;42.600;23.556;2023-05-27T10:45:09;93471.53;;;19.31;97.09
10466;BME280;5280;42.600;23.556;2023-05-27T10:47:36;93474.84;;;19.33;92.66
10466;BME280;5280;42.600;23.556;2023-05-27T10:50:11;93465.97;;;19.41;94.34
10466;BME280;5280;42.600;23.556;2023-05-27T10:52:39;93458.97;;;19.31;94.51
10466;BME280;5280;42.600;23.556;2023-05-27T10:55:07;93456.28;;;19.31;94.98
10466;BME280;5280;42.600;23.556;2023-05-27T10:57:34;93467.00;;;19.31;92.18
10466;BME280;5280;42.600;23.556;2023-05-27T11:00:03;93475.22;;;19.30;93.88
10466;BME280;5280;42.600;23.556;2023-05-27T11:02:38;93469.81;;;19.38;93.83
10466;BME280;5280;42.600;23.556;2023-05-27T11:05:08;93461.28;;;19.34;94.24
10466;BME280;5280;42.600;23.556;2023-05-27T11:07:36;93435.50;;;19.33;96.95
10466;BME280;5280;42.600;23.556;2023-05-27T11:10:04;93406.09;;;19.17;96.73
10466;BME280;5280;42.600;23.556;2023-05-27T11:12:32;93466.13;;;19.39;93.51
10466;BME280;5280;42.600;23.556;2023-05-27T11:14:59;93449.03;;;19.48;92.01
10466;BME280;5280;42.600;23.556;2023-05-27T11:17:26;93447.97;;;19.65;91.31
10466;BME280;5280;42.600;23.556;2023-05-27T11:19:54;93434.25;;;19.60;90.04
10466;BME280;5280;42.600;23.556;2023-05-27T11:22:22;93446.47;;;19.63;87.83
10466;BME280;5280;42.600;23.556;2023-05-27T11:24:59;93447.97;;;19.65;82.84
10466;BME280;5280;42.600;23.556;2023-05-27T11:27:32;93420.38;;;19.57;82.90
10466;BME280;5280;42.600;23.556;2023-05-27T11:30:06;93398.09;;;19.56;83.81
10466;BME280;5280;42.600;23.556;2023-05-27T11:32:35;93436.28;;;19.89;83.52
10466;BME280;5280;42.600;23.556;2023-05-27T11:35:04;93424.94;;;19.87;82.40
10466;BME280;5280;42.600;23.556;2023-05-27T11:37:33;93432.56;;;19.98;83.49
10466;BME280;5280;42.600;23.556;2023-05-27T11:40:01;93416.66;;;19.97;80.38
10466;BME280;5280;42.600;23.556;2023-05-27T11:42:28;93426.34;;;19.98;82.11
10466;BME280;5280;42.600;23.556;2023-05-27T11:44:56;93438.34;;;20.10;79.44
10466;BME280;5280;42.600;23.556;2023-05-27T11:47:24;93427.09;;;20.14;82.62
10466;BME280;5280;42.600;23.556;2023-05-27T11:49:52;93419.75;;;20.08;80.10
10466;BME280;5280;42.600;23.556;2023-05-27T11:52:24;93421.16;;;20.27;81.92
10466;BME280;5280;42.600;23.556;2023-05-27T11:54:51;93416.50;;;20.21;76.43
10466;BME280;5280;42.600;23.556;2023-05-27T11:57:18;93417.63;;;20.27;77.75
10466;BME280;5280;42.600;23.556;2023-05-27T11:59:44;93419.25;;;20.36;77.85
10466;BME280;5280;42.600;23.556;2023-05-27T12:02:11;93420.75;;;20.38;78.40
10466;BME280;5280;42.600;23.556;2023-05-27T12:04:38;93414.00;;;20.42;75.11
10466;BME280;5280;42.600;23.556;2023-05-27T12:07:05;93382.88;;;20.33;78.26
10466;BME280;5280;42.600;23.556;2023-05-27T12:09:33;93400.88;;;20.47;73.84
10466;BME280;5280;42.600;23.556;2023-05-27T12:12:00;93357.91;;;20.25;72.48
10466;BME280;5280;42.600;23.556;2023-05-27T12:14:27;93398.59;;;20.59;73.34
10466;BME280;5280;42.600;23.556;2023-05-27T12:16:54;93360.28;;;20.42;72.76
10466;BME280;5280;42.600;23.556;2023-05-27T12:19:21;93382.84;;;20.56;71.49
10466;BME280;5280;42.600;23.556;2023-05-27T12:21:47;93388.69;;;20.59;72.20
10466;BME280;5280;42.600;23.556;2023-05-27T12:24:15;93392.41;;;20.73;71.31
10466;BME280;5280;42.600;23.556;2023-05-27T12:26:43;93376.41;;;20.80;75.11
10466;BME280;5280;42.600;23.556;2023-05-27T12:29:10;93381.97;;;20.78;72.17
10466;BME280;5280;42.600;23.556;2023-05-27T12:31:37;93369.09;;;20.74;72.73
10466;BME280;5280;42.600;23.556;2023-05-27T12:34:04;93386.03;;;20.74;72.24
10466;BME280;5280;42.600;23.556;2023-05-27T12:36:31;93360.81;;;20.60;73.17
10466;BME280;5280;42.600;23.556;2023-05-27T12:38:58;93371.47;;;20.69;71.49
10466;BME280;5280;42.600;23.556;2023-05-27T12:41:26;93378.72;;;20.83;73.80
10466;BME280;5280;42.600;23.556;2023-05-27T12:43:54;93366.50;;;20.80;72.42
10466;BME280;5280;42.600;23.556;2023-05-27T12:46:21;93319.97;;;20.50;72.55
10466;BME280;5280;42.600;23.556;2023-05-27T12:48:48;93266.72;;;20.39;72.69
10466;BME280;5280;42.600;23.556;2023-05-27T12:51:15;93307.28;;;20.59;73.16
10466;BME280;5280;42.600;23.556;2023-05-27T12:53:42;93316.34;;;20.58;70.38
10466;BME280;5280;42.600;23.556;2023-05-27T12:56:09;93348.56;;;20.95;74.93